createdAt,value
2019-02-26T00:00:47.257Z,3.60
2019-02-26T00:03:19.896Z,3.60
2019-02-26T00:05:51.793Z,3.60
2019-02-26T00:08:21.851Z,3.50
2019-02-26T00:10:54.753Z,3.50
2019-02-26T00:13:25.080Z,3.50
2019-02-26T00:15:55.868Z,3.40
2019-02-26T00:18:25.485Z,3.40
2019-02-26T00:20:56.670Z,3.30
2019-02-26T00:23:29.678Z,3.10
2019-02-26T00:25:59.305Z,3.10
2019-02-26T00:28:28.965Z,3.10
2019-02-26T00:30:59.518Z,3.00
2019-02-26T00:33:30.210Z,3.00
2019-02-26T00:35:59.813Z,3.00
2019-02-26T00:38:29.448Z,2.90
2019-02-26T00:41:01.540Z,3.20
2019-02-26T00:43:32.299Z,3.20
2019-02-26T00:46:03.150Z,3.10
2019-02-26T00:48:34.168Z,3.00
2019-02-26T00:51:05.141Z,2.90
2019-02-26T00:53:34.770Z,2.80
2019-02-26T00:56:05.724Z,2.70
2019-02-26T00:58:38.963Z,2.70
2019-02-26T01:01:10.225Z,2.60
2019-02-26T01:03:40.673Z,2.60
2019-02-26T01:06:10.377Z,2.60
2019-02-26T01:08:42.524Z,2.60
2019-02-26T01:11:11.951Z,2.50
2019-02-26T01:13:41.572Z,2.50
2019-02-26T01:16:11.479Z,2.50
2019-02-26T01:18:42.174Z,2.60
2019-02-26T01:21:12.731Z,2.60
2019-02-26T01:23:42.967Z,2.60
2019-02-26T01:26:12.812Z,2.50
2019-02-26T01:28:46.152Z,2.50
2019-02-26T01:31:13.840Z,2.50
2019-02-26T01:33:43.456Z,2.50
2019-02-26T01:36:13.988Z,2.50
2019-02-26T01:38:46.306Z,2.50
2019-02-26T01:41:17.846Z,2.40
2019-02-26T01:43:47.513Z,2.40
2019-02-26T01:46:18.792Z,2.30
2019-02-26T01:48:48.557Z,2.40
2019-02-26T01:51:20.027Z,2.30
2019-02-26T01:53:51.909Z,2.30
2019-02-26T01:56:22.206Z,2.30
2019-02-26T01:58:56.623Z,2.20
2019-02-26T02:01:23.858Z,2.20
2019-02-26T02:03:56.118Z,2.30
2019-02-26T02:06:25.780Z,2.30
2019-02-26T02:08:55.783Z,2.40
2019-02-26T02:11:30.626Z,2.40
2019-02-26T02:14:01.871Z,2.40
2019-02-26T02:16:31.400Z,2.40
2019-02-26T02:19:01.310Z,2.40
2019-02-26T02:21:33.809Z,2.40
2019-02-26T02:24:05.746Z,2.40
2019-02-26T02:26:35.306Z,2.40
2019-02-26T02:29:05.152Z,2.40
2019-02-26T02:31:37.610Z,2.40
2019-02-26T02:34:06.108Z,2.40
2019-02-26T02:36:35.723Z,2.30
2019-02-26T02:39:10.399Z,2.40
2019-02-26T02:41:39.364Z,2.40
2019-02-26T02:44:12.335Z,2.30
2019-02-26T02:46:42.528Z,2.40
2019-02-26T02:49:13.278Z,2.40
2019-02-26T02:51:43.328Z,2.50
2019-02-26T02:54:15.447Z,2.50
2019-02-26T02:56:44.533Z,2.60
2019-02-26T02:59:16.455Z,2.60
2019-02-26T03:01:48.374Z,2.70
2019-02-26T03:04:19.602Z,2.70
2019-02-26T03:06:50.174Z,2.80
2019-02-26T03:09:19.856Z,2.80
2019-02-26T03:11:51.912Z,2.90
2019-02-26T03:14:20.810Z,2.90
2019-02-26T03:16:51.430Z,3.00
2019-02-26T03:19:21.781Z,3.00
2019-02-26T03:21:52.645Z,3.10
2019-02-26T03:24:25.363Z,3.10
2019-02-26T03:26:54.086Z,3.20
2019-02-26T03:29:24.036Z,3.20
2019-02-26T03:31:55.484Z,3.30
2019-02-26T03:34:25.777Z,3.30
2019-02-26T03:36:59.653Z,3.30
2019-02-26T03:39:28.692Z,3.40
2019-02-26T03:41:58.665Z,3.40
2019-02-26T03:44:30.359Z,3.50
2019-02-26T03:47:00.110Z,3.50
2019-02-26T03:49:30.200Z,3.50
2019-02-26T03:52:00.300Z,3.60
2019-02-26T03:54:30.202Z,3.60
2019-02-26T03:56:59.836Z,3.70
2019-02-26T03:59:29.908Z,3.70
2019-02-26T04:01:59.807Z,3.70
2019-02-26T04:04:31.126Z,3.80
2019-02-26T04:07:01.305Z,3.90
2019-02-26T04:09:32.638Z,3.90
2019-02-26T04:12:02.624Z,3.90
2019-02-26T04:14:32.237Z,4.00
2019-02-26T04:17:04.124Z,4.00
2019-02-26T04:19:33.455Z,4.00
2019-02-26T04:22:26.422Z,4.00
2019-02-26T04:25:01.512Z,4.00
2019-02-26T04:27:56.985Z,3.90
2019-02-26T04:31:07.093Z,3.90
2019-02-26T04:34:19.658Z,3.90
2019-02-26T04:37:12.954Z,3.80
2019-02-26T04:40:20.079Z,3.80
2019-02-26T04:43:31.310Z,3.80
2019-02-26T04:46:42.330Z,3.70
2019-02-26T04:49:11.935Z,3.70
2019-02-26T04:51:44.505Z,3.70
2019-02-26T04:54:17.551Z,3.60
2019-02-26T04:56:45.126Z,3.70
2019-02-26T04:59:17.018Z,3.70
2019-02-26T05:01:49.240Z,3.70
2019-02-26T05:04:18.834Z,3.60
2019-02-26T05:06:48.786Z,3.60
2019-02-26T05:09:18.740Z,3.60
2019-02-26T05:11:48.644Z,3.60
2019-02-26T05:14:23.022Z,3.50
2019-02-26T05:16:49.814Z,3.50
2019-02-26T05:19:21.762Z,3.40
2019-02-26T05:21:50.799Z,3.40
2019-02-26T05:24:21.815Z,3.40
2019-02-26T05:26:51.956Z,3.40
2019-02-26T05:29:21.577Z,3.30
2019-02-26T05:32:10.780Z,3.30
2019-02-26T05:34:42.694Z,3.40
2019-02-26T05:37:13.936Z,3.30
2019-02-26T05:39:45.872Z,3.30
2019-02-26T05:42:14.801Z,3.30
2019-02-26T05:44:44.436Z,3.20
2019-02-26T05:47:16.692Z,3.20
2019-02-26T05:49:45.955Z,3.10
2019-02-26T05:52:15.744Z,3.10
2019-02-26T05:54:46.490Z,3.00
2019-02-26T05:57:26.244Z,3.00
2019-02-26T05:59:48.791Z,3.00
2019-02-26T06:02:19.638Z,2.90
2019-02-26T06:04:50.022Z,2.90
2019-02-26T06:07:24.133Z,2.80
2019-02-26T06:09:53.597Z,2.80
2019-02-26T06:12:23.510Z,2.80
2019-02-26T06:14:54.147Z,2.80
2019-02-26T06:17:24.773Z,2.80
2019-02-26T06:19:57.113Z,2.70
2019-02-26T06:22:29.218Z,2.60
2019-02-26T06:25:00.310Z,2.60
2019-02-26T06:27:31.021Z,2.60
2019-02-26T06:30:03.183Z,2.70
2019-02-26T06:32:35.208Z,2.70
2019-02-26T06:35:08.518Z,2.70
2019-02-26T06:37:40.279Z,2.70
2019-02-26T06:40:10.603Z,2.70
2019-02-26T06:42:40.435Z,2.70
2019-02-26T06:45:13.909Z,2.70
2019-02-26T06:47:45.614Z,2.70
2019-02-26T06:50:18.538Z,2.70
2019-02-26T06:52:48.627Z,2.70
2019-02-26T06:55:18.901Z,2.70
2019-02-26T06:57:50.880Z,2.70
2019-02-26T07:00:22.288Z,2.70
2019-02-26T07:02:51.467Z,2.70
2019-02-26T07:05:23.895Z,2.80
2019-02-26T07:07:55.067Z,2.80
2019-02-26T07:10:26.308Z,2.80
2019-02-26T07:12:55.664Z,2.80
2019-02-26T07:15:28.776Z,2.90
2019-02-26T07:18:00.108Z,2.90
2019-02-26T07:20:34.111Z,3.00
2019-02-26T07:23:00.685Z,3.00
2019-02-26T07:25:31.794Z,3.10
2019-02-26T07:28:02.955Z,3.10
2019-02-26T07:30:34.695Z,3.20
2019-02-26T07:33:05.340Z,3.20
2019-02-26T07:35:37.333Z,3.30
2019-02-26T07:38:06.996Z,3.30
2019-02-26T07:40:38.636Z,3.40
2019-02-26T07:43:09.849Z,3.50
2019-02-26T07:45:39.485Z,3.60
2019-02-26T07:48:09.203Z,3.70
2019-02-26T07:50:41.556Z,3.80
2019-02-26T07:53:12.233Z,3.90
2019-02-26T07:55:42.421Z,4.10
2019-02-26T07:58:13.741Z,4.30
2019-02-26T08:00:49.177Z,4.40
2019-02-26T08:03:17.392Z,4.60
2019-02-26T08:05:47.172Z,4.80
2019-02-26T08:08:18.728Z,4.90
2019-02-26T08:10:48.943Z,5.00
2019-02-26T08:13:19.485Z,5.20
2019-02-26T08:15:49.116Z,5.40
2019-02-26T08:18:18.728Z,5.60
2019-02-26T08:20:48.351Z,5.70
2019-02-26T08:23:19.891Z,5.80
2019-02-26T08:25:50.044Z,5.80
2019-02-26T08:28:23.016Z,6.00
2019-02-26T08:30:54.690Z,6.20
2019-02-26T08:33:24.061Z,6.30
2019-02-26T08:35:56.150Z,6.40
2019-02-26T08:38:29.432Z,6.50
2019-02-26T08:40:56.592Z,6.60
2019-02-26T08:43:26.339Z,6.70
2019-02-26T08:45:56.275Z,6.80
2019-02-26T08:48:27.040Z,6.90
2019-02-26T08:51:00.922Z,6.90
2019-02-26T08:53:29.623Z,7.00
2019-02-26T08:56:01.951Z,7.20
2019-02-26T08:58:31.485Z,7.30
2019-02-26T09:01:01.109Z,7.40
2019-02-26T09:03:40.175Z,7.40
2019-02-26T09:06:10.865Z,7.40
2019-02-26T09:08:35.590Z,7.60
2019-02-26T09:11:06.272Z,7.80
2019-02-26T09:13:38.690Z,7.90
2019-02-26T09:16:08.040Z,8.10
2019-02-26T09:18:40.182Z,8.10
2019-02-26T09:21:10.250Z,8.20
2019-02-26T09:23:40.778Z,8.20
2019-02-26T09:26:10.390Z,8.40
2019-02-26T09:28:40.002Z,8.50
2019-02-26T09:31:11.689Z,8.50
2019-02-26T09:33:43.569Z,8.60
2019-02-26T09:36:15.193Z,8.70
2019-02-26T09:38:44.977Z,8.80
2019-02-26T09:41:16.624Z,9.00
2019-02-26T09:43:48.111Z,9.10
2019-02-26T09:46:19.080Z,9.20
2019-02-26T09:48:49.170Z,9.40
2019-02-26T09:51:19.153Z,9.50
2019-02-26T09:53:50.097Z,9.60
2019-02-26T09:56:20.094Z,9.80
2019-02-26T09:58:50.861Z,9.90
2019-02-26T10:01:20.666Z,10.00
2019-02-26T10:03:50.293Z,10.20
2019-02-26T10:06:21.615Z,10.20
2019-02-26T10:08:53.174Z,10.30
2019-02-26T10:11:23.176Z,10.50
2019-02-26T10:13:53.961Z,10.60
2019-02-26T10:16:25.629Z,10.90
2019-02-26T10:18:56.808Z,10.90
2019-02-26T10:21:26.755Z,11.00
2019-02-26T10:23:57.666Z,11.30
2019-02-26T10:26:30.555Z,11.30
2019-02-26T10:29:04.407Z,11.40
2019-02-26T10:31:32.329Z,11.40
2019-02-26T10:34:03.033Z,11.40
2019-02-26T10:36:35.981Z,11.40
2019-02-26T10:39:07.486Z,11.50
2019-02-26T10:41:39.850Z,11.70
2019-02-26T10:44:10.326Z,11.80
2019-02-26T10:46:41.956Z,11.80
2019-02-26T10:49:12.450Z,11.80
2019-02-26T10:51:43.043Z,11.90
2019-02-26T10:54:17.631Z,11.80
2019-02-26T10:56:44.894Z,11.70
2019-02-26T10:59:15.795Z,11.80
2019-02-26T11:01:49.328Z,12.10
2019-02-26T11:04:18.220Z,12.10
2019-02-26T11:06:47.859Z,12.00
2019-02-26T11:09:21.840Z,12.20
2019-02-26T11:11:49.149Z,12.20
2019-02-26T11:14:19.480Z,12.20
2019-02-26T11:16:49.322Z,12.30
2019-02-26T11:19:19.326Z,12.40
2019-02-26T11:21:50.705Z,12.30
2019-02-26T11:24:20.273Z,12.20
2019-02-26T11:26:50.138Z,12.30
2019-02-26T11:29:19.778Z,12.50
2019-02-26T11:31:49.727Z,12.60
2019-02-26T11:34:19.511Z,12.60
2019-02-26T11:36:49.131Z,12.40
2019-02-26T11:39:18.780Z,12.40
2019-02-26T11:41:50.734Z,12.50
2019-02-26T11:44:22.654Z,12.50
2019-02-26T11:46:53.738Z,12.60
2019-02-26T11:49:23.013Z,12.50
2019-02-26T11:51:52.795Z,12.50
2019-02-26T11:54:23.248Z,12.60
2019-02-26T11:56:52.862Z,12.70
2019-02-26T11:59:22.719Z,12.80
2019-02-26T12:01:54.034Z,12.90
2019-02-26T12:04:23.728Z,13.00
2019-02-26T12:06:53.401Z,13.10
2019-02-26T12:09:23.020Z,13.10
2019-02-26T12:11:52.639Z,13.00
2019-02-26T12:14:22.408Z,13.00
2019-02-26T12:16:52.064Z,12.90
2019-02-26T12:19:23.124Z,13.00
2019-02-26T12:21:55.139Z,13.00
2019-02-26T12:24:26.433Z,13.10
2019-02-26T12:26:55.750Z,13.10
2019-02-26T12:29:25.931Z,13.10
2019-02-26T12:31:58.233Z,13.10
2019-02-26T12:34:28.444Z,13.20
2019-02-26T12:37:02.090Z,13.30
2019-02-26T12:39:31.394Z,13.30
2019-02-26T12:42:01.107Z,13.30
2019-02-26T12:44:31.891Z,13.40
2019-02-26T12:47:02.126Z,13.40
2019-02-26T12:49:35.019Z,13.40
2019-02-26T12:52:03.509Z,13.50
2019-02-26T12:54:36.451Z,13.60
2019-02-26T12:57:05.105Z,13.60
2019-02-26T12:59:34.748Z,13.50
2019-02-26T13:02:05.661Z,13.50
2019-02-26T13:04:37.719Z,13.50
2019-02-26T13:07:09.317Z,13.60
2019-02-26T13:09:46.901Z,13.70
2019-02-26T13:12:12.634Z,13.70
2019-02-26T13:14:42.716Z,13.60
2019-02-26T13:17:13.833Z,13.70
2019-02-26T13:19:43.655Z,13.70
2019-02-26T13:22:17.373Z,13.70
2019-02-26T13:24:44.942Z,13.80
2019-02-26T13:27:14.564Z,13.90
2019-02-26T13:29:53.790Z,13.90
2019-02-26T13:32:17.627Z,13.90
2019-02-26T13:34:47.132Z,14.00
2019-02-26T13:37:16.914Z,14.00
2019-02-26T13:39:46.636Z,14.10
2019-02-26T13:42:19.271Z,14.20
2019-02-26T13:44:48.551Z,14.30
2019-02-26T13:47:18.471Z,14.40
2019-02-26T13:49:48.478Z,14.30
2019-02-26T13:52:18.106Z,14.30
2019-02-26T13:54:47.712Z,14.70
2019-02-26T13:57:17.340Z,14.60
2019-02-26T13:59:46.953Z,14.50
2019-02-26T14:02:17.099Z,14.50
2019-02-26T14:04:46.782Z,14.50
2019-02-26T14:07:17.473Z,14.40
2019-02-26T14:09:47.359Z,14.50
2019-02-26T14:12:17.651Z,14.50
2019-02-26T14:14:47.645Z,14.50
2019-02-26T14:17:17.274Z,14.50
2019-02-26T14:19:47.753Z,14.50
2019-02-26T14:22:18.006Z,14.60
2019-02-26T14:24:47.692Z,14.60
2019-02-26T14:27:17.409Z,14.60
2019-02-26T14:29:47.041Z,14.50
2019-02-26T14:32:16.752Z,14.50
2019-02-26T14:34:46.548Z,14.60
2019-02-26T14:37:16.242Z,14.60
2019-02-26T14:39:46.148Z,14.60
2019-02-26T14:42:15.796Z,14.60
2019-02-26T14:44:45.423Z,14.60
2019-02-26T14:47:15.397Z,14.70
2019-02-26T14:49:45.020Z,14.60
2019-02-26T14:52:14.904Z,14.70
2019-02-26T14:54:44.600Z,14.70
2019-02-26T14:57:14.406Z,14.70
2019-02-26T14:59:44.262Z,14.70
2019-02-26T15:02:14.869Z,14.70
2019-02-26T15:04:44.840Z,14.70
2019-02-26T15:07:14.726Z,14.70
2019-02-26T15:09:44.650Z,14.70
2019-02-26T15:12:14.344Z,14.70
2019-02-26T15:14:44.486Z,14.70
2019-02-26T15:17:14.338Z,14.70
2019-02-26T15:19:49.639Z,14.70
2019-02-26T15:22:15.479Z,14.60
2019-02-26T15:24:45.691Z,14.60
2019-02-26T15:27:15.321Z,14.60
2019-02-26T15:29:45.164Z,14.50
2019-02-26T15:32:15.164Z,14.60
2019-02-26T15:34:45.042Z,14.50
2019-02-26T15:37:14.673Z,14.50
2019-02-26T15:39:44.374Z,14.50
2019-02-26T15:42:14.800Z,14.50
2019-02-26T15:44:44.416Z,14.40
2019-02-26T15:47:14.445Z,14.30
2019-02-26T15:49:44.085Z,14.20
2019-02-26T15:52:13.719Z,14.10
2019-02-26T15:54:43.346Z,14.10
2019-02-26T15:57:12.980Z,14.00
2019-02-26T15:59:42.621Z,14.00
2019-02-26T16:02:12.332Z,13.90
2019-02-26T16:04:42.189Z,13.80
2019-02-26T16:07:12.628Z,13.80
2019-02-26T16:09:42.244Z,13.70
2019-02-26T16:12:12.480Z,13.60
2019-02-26T16:14:42.392Z,13.60
2019-02-26T16:17:12.265Z,13.50
2019-02-26T16:19:43.647Z,13.40
2019-02-26T16:22:13.372Z,13.30
2019-02-26T16:24:43.536Z,13.20
2019-02-26T16:27:13.400Z,13.20
2019-02-26T16:29:43.033Z,13.10
2019-02-26T16:32:12.732Z,13.10
2019-02-26T16:34:42.367Z,13.10
2019-02-26T16:37:12.161Z,13.00
2019-02-26T16:39:42.380Z,13.20
2019-02-26T16:42:12.355Z,13.40
2019-02-26T16:44:42.752Z,13.50
2019-02-26T16:47:12.608Z,13.50
2019-02-26T16:49:44.042Z,13.30
2019-02-26T16:52:13.970Z,13.00
2019-02-26T16:54:43.633Z,12.80
2019-02-26T16:57:13.247Z,12.60
2019-02-26T16:59:43.426Z,12.50
2019-02-26T17:02:13.332Z,12.40
2019-02-26T17:04:42.964Z,12.30
2019-02-26T17:07:12.970Z,12.20
2019-02-26T17:09:42.588Z,12.10
2019-02-26T17:12:12.200Z,12.00
2019-02-26T17:14:42.218Z,11.90
2019-02-26T17:17:12.152Z,11.80
2019-02-26T17:19:41.809Z,11.70
2019-02-26T17:22:11.739Z,11.60
2019-02-26T17:24:41.412Z,11.50
2019-02-26T17:27:11.411Z,11.40
2019-02-26T17:29:42.124Z,11.30
2019-02-26T17:32:12.035Z,11.20
2019-02-26T17:34:41.661Z,11.10
2019-02-26T17:37:11.626Z,10.90
2019-02-26T17:39:41.333Z,10.90
2019-02-26T17:42:11.301Z,10.70
2019-02-26T17:44:41.285Z,10.60
2019-02-26T17:47:10.916Z,10.50
2019-02-26T17:49:40.550Z,10.40
2019-02-26T17:52:10.279Z,10.20
2019-02-26T17:54:39.938Z,10.10
2019-02-26T17:57:09.784Z,10.10
2019-02-26T17:59:39.410Z,10.00
2019-02-26T18:02:09.120Z,10.00
2019-02-26T18:04:38.767Z,9.90
2019-02-26T18:07:08.725Z,9.90
2019-02-26T18:09:38.344Z,9.90
2019-02-26T18:12:07.965Z,9.80
2019-02-26T18:14:38.884Z,9.80
2019-02-26T18:17:09.124Z,9.70
2019-02-26T18:19:38.766Z,9.60
2019-02-26T18:22:08.684Z,9.60
2019-02-26T18:24:38.305Z,9.50
2019-02-26T18:27:08.272Z,9.50
2019-02-26T18:29:37.918Z,9.40
2019-02-26T18:32:10.821Z,9.40
2019-02-26T18:34:38.956Z,9.40
2019-02-26T18:37:08.587Z,9.30
2019-02-26T18:39:38.197Z,9.30
2019-02-26T18:42:08.439Z,9.20
2019-02-26T18:44:38.353Z,9.30
2019-02-26T18:47:07.971Z,9.20
2019-02-26T18:49:37.906Z,9.20
2019-02-26T18:52:08.703Z,9.20
2019-02-26T18:54:38.858Z,9.20
2019-02-26T18:57:11.710Z,9.20
2019-02-26T18:59:41.372Z,9.10
2019-02-26T19:02:11.382Z,9.10
2019-02-26T19:04:40.989Z,9.10
2019-02-26T19:07:10.613Z,9.00
2019-02-26T19:09:42.653Z,9.00
2019-02-26T19:12:11.596Z,8.90
2019-02-26T19:14:42.243Z,8.80
2019-02-26T19:17:12.710Z,8.80
2019-02-26T19:19:42.586Z,8.70
2019-02-26T19:22:12.650Z,8.70
2019-02-26T19:24:42.488Z,8.60
2019-02-26T19:27:12.150Z,8.50
2019-02-26T19:29:41.802Z,8.40
2019-02-26T19:32:15.474Z,8.20
2019-02-26T19:34:43.135Z,8.10
2019-02-26T19:37:13.162Z,8.00
2019-02-26T19:39:42.853Z,8.00
2019-02-26T19:42:12.487Z,7.90
2019-02-26T19:44:42.416Z,7.70
2019-02-26T19:47:14.230Z,7.60
2019-02-26T19:49:43.610Z,7.50
2019-02-26T19:52:13.220Z,7.40
2019-02-26T19:54:43.105Z,7.50
2019-02-26T19:57:13.152Z,7.40
2019-02-26T19:59:46.845Z,7.40
2019-02-26T20:02:14.080Z,7.20
2019-02-26T20:04:44.966Z,7.20
2019-02-26T20:07:14.603Z,7.10
2019-02-26T20:09:44.230Z,7.00
2019-02-26T20:12:13.846Z,6.90
2019-02-26T20:14:43.561Z,6.90
2019-02-26T20:17:14.785Z,6.70
2019-02-26T20:19:44.677Z,6.70
2019-02-26T20:22:14.305Z,6.70
2019-02-26T20:24:44.022Z,6.60
2019-02-26T20:27:13.953Z,6.60
2019-02-26T20:29:43.581Z,6.50
2019-02-26T20:32:13.192Z,6.40
2019-02-26T20:34:42.815Z,6.30
2019-02-26T20:37:12.581Z,6.30
2019-02-26T20:39:44.128Z,6.10
2019-02-26T20:42:13.965Z,6.10
2019-02-26T20:44:45.456Z,6.00
2019-02-26T20:47:15.354Z,6.00
2019-02-26T20:49:46.280Z,6.00
2019-02-26T20:52:16.301Z,6.00
2019-02-26T20:54:46.110Z,5.90
2019-02-26T20:57:15.795Z,5.80
2019-02-26T20:59:45.873Z,5.70
2019-02-26T21:02:16.138Z,5.60
2019-02-26T21:04:45.756Z,5.60
2019-02-26T21:07:15.382Z,5.50
2019-02-26T21:09:45.005Z,5.50
2019-02-26T21:12:15.383Z,5.50
2019-02-26T21:14:45.349Z,5.30
2019-02-26T21:17:14.952Z,5.30
2019-02-26T21:19:45.165Z,5.20
2019-02-26T21:22:15.089Z,5.10
2019-02-26T21:24:44.711Z,5.10
2019-02-26T21:27:14.399Z,5.00
2019-02-26T21:29:44.075Z,5.00
2019-02-26T21:32:13.988Z,4.90
2019-02-26T21:34:47.394Z,4.90
2019-02-26T21:37:15.566Z,4.80
2019-02-26T21:39:45.184Z,4.80
2019-02-26T21:42:15.529Z,4.70
2019-02-26T21:44:45.142Z,4.70
2019-02-26T21:47:14.748Z,4.70
2019-02-26T21:49:46.576Z,4.70
2019-02-26T21:52:15.696Z,4.70
2019-02-26T21:54:45.638Z,4.80
2019-02-26T21:57:15.600Z,4.80
2019-02-26T21:59:49.954Z,4.70
2019-02-26T22:02:18.640Z,4.60
2019-02-26T22:04:48.152Z,4.60
2019-02-26T22:07:19.642Z,4.50
2019-02-26T22:09:49.464Z,4.40
2019-02-26T22:12:19.078Z,4.30
2019-02-26T22:14:48.697Z,4.30
2019-02-26T22:17:18.316Z,4.30
2019-02-26T22:19:47.936Z,4.30
2019-02-26T22:22:17.576Z,4.30
2019-02-26T22:24:47.215Z,4.30
2019-02-26T22:27:16.865Z,4.30
2019-02-26T22:29:48.117Z,4.20
2019-02-26T22:32:17.841Z,4.20
2019-02-26T22:34:47.445Z,4.20
2019-02-26T22:37:17.071Z,4.20
2019-02-26T22:39:46.746Z,4.10
2019-02-26T22:42:16.365Z,4.10
2019-02-26T22:44:46.250Z,4.00
2019-02-26T22:47:15.876Z,3.90
2019-02-26T22:49:45.833Z,3.90
2019-02-26T22:52:15.705Z,3.90
2019-02-26T22:54:45.335Z,3.80
2019-02-26T22:57:15.008Z,3.90
2019-02-26T22:59:44.660Z,3.90
2019-02-26T23:02:14.495Z,3.80
2019-02-26T23:04:44.344Z,3.70
2019-02-26T23:07:14.153Z,3.70
2019-02-26T23:09:44.005Z,3.60
2019-02-26T23:12:14.441Z,3.60
2019-02-26T23:14:44.299Z,3.60
2019-02-26T23:17:14.268Z,3.60
2019-02-26T23:19:43.960Z,3.50
2019-02-26T23:22:13.992Z,3.50
2019-02-26T23:24:44.389Z,3.40
2019-02-26T23:27:15.186Z,3.40
2019-02-26T23:29:46.892Z,3.40
2019-02-26T23:32:17.229Z,3.30
2019-02-26T23:35:02.728Z,3.30
2019-02-26T23:37:34.527Z,3.20
2019-02-26T23:40:05.876Z,3.20
2019-02-26T23:42:38.951Z,3.20
2019-02-26T23:45:09.149Z,3.20
2019-02-26T23:47:40.134Z,3.20
2019-02-26T23:50:10.038Z,3.20
2019-02-26T23:52:40.084Z,3.10
2019-02-26T23:55:13.280Z,3.10
2019-02-26T23:57:42.216Z,3.10
